Time;durP1;ratioP1;P1;durP2;ratioP2;P2;SDS_P1;SDS_P2;PMS_P1;PMS_P2;Temp;Humidity;BMP_temperature;BMP_pressure;BME280_temperature;BME280_humidity;BME280_pressure;Samples;Min_cycle;Max_cycle;Signal;HPM_P1;HPM_P2
2024/04/20 00:00:13;;;;;;;24.33;3.67;;;;;;;5.47;100.00;101888.03;5564861;25;20446;-76
2024/04/20 00:02:38;;;;;;;18.55;3.08;;;;;;;5.44;100.00;101880.28;5564868;25;20090;-77
2024/04/20 00:05:04;;;;;;;18.23;2.92;;;;;;;5.40;100.00;101875.25;5564253;25;19996;-77
2024/04/20 00:07:29;;;;;;;16.42;2.97;;;;;;;5.38;100.00;101885.88;5500743;25;19989;-76
2024/04/20 00:09:58;;;;;;;17.02;2.70;;;;;;;5.38;100.00;101880.59;5564399;25;20011;-77
2024/04/20 00:12:23;;;;;;;15.93;3.53;;;;;;;5.39;100.00;101879.69;5531517;25;20090;-77
2024/04/20 00:14:50;;;;;;;16.27;3.00;;;;;;;5.40;100.00;101885.81;5564645;25;20385;-77
2024/04/20 00:17:16;;;;;;;21.83;3.13;;;;;;;5.39;100.00;101887.59;5564065;25;20364;-77
2024/04/20 00:19:41;;;;;;;23.38;2.95;;;;;;;5.41;100.00;101880.44;5564379;25;20009;-76
2024/04/20 00:22:06;;;;;;;19.98;3.58;;;;;;;5.42;100.00;101889.19;5531081;25;19997;-76
2024/04/20 00:24:32;;;;;;;13.10;2.70;;;;;;;5.44;100.00;101890.00;5564005;25;19996;-75
2024/04/20 00:26:57;;;;;;;17.38;2.88;;;;;;;5.45;100.00;101887.28;5531609;25;19997;-78
2024/04/20 00:29:23;;;;;;;17.52;3.05;;;;;;;5.45;100.00;101883.78;5563570;25;20004;-77
2024/04/20 00:31:48;;;;;;;24.70;3.50;;;;;;;5.46;100.00;101888.13;5564205;25;19993;-76
2024/04/20 00:34:14;;;;;;;20.88;2.80;;;;;;;5.44;100.00;101890.00;5563973;25;20004;-76
2024/04/20 00:36:39;;;;;;;16.60;2.95;;;;;;;5.42;100.00;101897.13;5531260;25;20000;-77
2024/04/20 00:39:05;;;;;;;18.90;2.78;;;;;;;5.41;100.00;101901.56;5563886;25;20001;-78
2024/04/20 00:41:30;;;;;;;14.32;2.95;;;;;;;5.41;100.00;101895.44;5564217;25;19993;-77
2024/04/20 00:43:56;;;;;;;16.75;2.47;;;;;;;5.38;100.00;101893.81;5564279;25;20341;-76
2024/04/20 00:46:24;;;;;;;12.75;2.25;;;;;;;5.38;100.00;101896.44;5563656;25;20119;-75
2024/04/20 00:48:51;;;;;;;22.92;2.95;;;;;;;5.41;100.00;101888.34;5564298;25;20005;-77
2024/04/20 00:51:17;;;;;;;20.25;3.15;;;;;;;5.42;100.00;101899.75;5563582;25;20032;-76
2024/04/20 00:53:46;;;;;;;23.20;3.55;;;;;;;5.40;100.00;101893.72;5563731;25;20004;-77
2024/04/20 00:56:13;;;;;;;21.25;3.83;;;;;;;5.38;100.00;101901.72;5563859;25;20306;-76
2024/04/20 00:58:38;;;;;;;20.42;3.55;;;;;;;5.39;100.00;101900.78;5563477;25;20057;-76
2024/04/20 01:01:04;;;;;;;12.23;2.55;;;;;;;5.41;100.00;101906.84;5563890;25;20480;-77
2024/04/20 01:03:30;;;;;;;14.73;2.47;;;;;;;5.42;100.00;101905.03;5563922;25;19992;-76
2024/04/20 01:05:58;;;;;;;21.30;3.15;;;;;;;5.41;100.00;101914.75;5530899;25;20390;-76
2024/04/20 01:08:23;;;;;;;17.77;2.75;;;;;;;5.39;100.00;101914.00;5531348;25;20020;-76
2024/04/20 01:10:49;;;;;;;20.42;2.47;;;;;;;5.37;100.00;101918.47;5563640;25;20008;-77
2024/04/20 01:13:15;;;;;;;20.08;2.50;;;;;;;5.33;100.00;101916.94;5530669;25;20313;-76
2024/04/20 01:15:40;;;;;;;16.13;2.20;;;;;;;5.32;100.00;101909.13;5563553;25;20004;-77
2024/04/20 01:18:05;;;;;;;9.98;2.00;;;;;;;5.29;100.00;101918.03;5563216;25;20011;-76
2024/04/20 01:20:31;;;;;;;18.15;2.13;;;;;;;5.27;100.00;101918.13;5530037;25;19993;-77
2024/04/20 01:23:00;;;;;;;17.67;2.65;;;;;;;5.25;100.00;101913.84;5563345;25;20007;-77
2024/04/20 01:25:26;;;;;;;12.38;2.10;;;;;;;5.24;100.00;101926.19;5563280;25;20005;-77
2024/04/20 01:27:51;;;;;;;12.57;2.00;;;;;;;5.22;100.00;101928.03;5530170;25;20306;-78
2024/04/20 01:30:17;;;;;;;12.38;2.10;;;;;;;5.24;100.00;101935.88;5499746;25;19992;-77
2024/04/20 01:32:43;;;;;;;15.85;2.15;;;;;;;5.23;100.00;101937.66;5563100;25;20003;-76
2024/04/20 01:35:09;;;;;;;11.00;2.40;;;;;;;5.26;100.00;101939.31;5562800;25;20000;-77
2024/04/20 01:37:34;;;;;;;16.42;2.85;;;;;;;5.28;100.00;101933.03;5562543;25;19999;-76
2024/04/20 01:40:00;;;;;;;25.65;3.55;;;;;;;5.32;100.00;101940.78;5562753;25;19993;-75
2024/04/20 01:42:25;;;;;;;20.55;2.50;;;;;;;5.35;100.00;101938.84;5562376;25;20007;-77
2024/04/20 01:44:50;;;;;;;19.00;3.45;;;;;;;5.35;100.00;101943.25;5562741;25;20571;-76
2024/04/20 01:47:16;;;;;;;13.50;2.85;;;;;;;5.33;100.00;101939.84;5562388;25;19993;-75
2024/04/20 01:49:41;;;;;;;14.50;2.50;;;;;;;5.29;100.00;101944.41;5562574;25;19993;-76
2024/04/20 01:52:08;;;;;;;15.30;2.22;;;;;;;5.24;100.00;101947.28;5563054;25;19992;-76
2024/04/20 01:54:33;;;;;;;13.38;2.10;;;;;;;5.20;100.00;101947.53;5562079;25;19997;-76
2024/04/20 01:56:59;;;;;;;17.85;2.60;;;;;;;5.16;100.00;101938.06;5562257;25;20007;-76
2024/04/20 01:59:24;;;;;;;23.48;2.30;;;;;;;5.10;100.00;101940.06;5561970;25;20328;-76
2024/04/20 02:01:53;;;;;;;21.42;2.53;;;;;;;5.08;100.00;101952.47;5562884;25;19993;-76
2024/04/20 02:04:18;;;;;;;14.90;2.00;;;;;;;5.08;100.00;101946.34;5563002;25;19997;-76
2024/04/20 02:06:44;;;;;;;20.50;2.85;;;;;;;5.07;100.00;101950.75;5565900;25;20004;-77
2024/04/20 02:09:11;;;;;;;13.90;2.85;;;;;;;5.06;100.00;101956.13;5565804;25;19993;-76
2024/04/20 02:11:36;;;;;;;15.82;2.10;;;;;;;5.08;100.00;101954.28;5565908;25;20003;-77
2024/04/20 02:14:02;;;;;;;18.60;2.28;;;;;;;5.06;100.00;101951.72;5565910;25;20432;-77
2024/04/20 02:16:27;;;;;;;17.52;2.58;;;;;;;5.08;100.00;101957.75;5565576;25;20317;-76
2024/04/20 02:18:52;;;;;;;12.35;2.25;;;;;;;5.11;100.00;101972.59;5565994;25;20060;-76
2024/04/20 02:21:18;;;;;;;13.90;2.05;;;;;;;5.10;100.00;101969.06;5565789;25;19996;-76
2024/04/20 02:23:44;;;;;;;16.77;2.88;;;;;;;5.10;100.00;101968.22;5533490;25;20000;-76
2024/04/20 02:26:10;;;;;;;18.98;3.00;;;;;;;5.07;100.00;101963.09;5565551;25;20488;-76
2024/04/20 02:28:35;;;;;;;9.20;2.10;;;;;;;5.06;100.00;101961.38;5565694;25;19999;-76
2024/04/20 02:31:01;;;;;;;13.15;2.55;;;;;;;5.04;100.00;101964.09;5565675;25;19992;-77
2024/04/20 02:33:26;;;;;;;15.60;3.15;;;;;;;5.04;100.00;101972.03;5532688;25;20439;-76
2024/04/20 02:35:52;;;;;;;18.35;2.42;;;;;;;5.08;100.00;101967.47;5565779;25;19991;-76
2024/04/20 02:38:18;;;;;;;15.70;2.92;;;;;;;5.10;100.00;101977.00;5566323;25;19997;-76
2024/04/20 02:40:43;;;;;;;12.30;2.08;;;;;;;5.14;100.00;101971.59;5566159;25;20007;-75
2024/04/20 02:43:09;;;;;;;10.57;2.60;;;;;;;5.12;100.00;101969.03;5565786;25;20000;-76
2024/04/20 02:45:34;;;;;;;14.27;2.22;;;;;;;5.13;100.00;101973.34;5532992;25;20325;-76
2024/04/20 02:47:59;;;;;;;9.60;2.45;;;;;;;5.13;100.00;101978.63;5566481;25;20373;-76
2024/04/20 02:50:25;;;;;;;12.38;2.42;;;;;;;5.13;100.00;101978.63;5565194;25;19993;-77
2024/04/20 02:52:50;;;;;;;22.08;3.15;;;;;;;5.17;100.00;101972.28;5565997;25;19997;-76
2024/04/20 02:55:15;;;;;;;16.77;2.55;;;;;;;5.20;100.00;101977.41;5565509;25;20009;-76
2024/04/20 02:57:41;;;;;;;15.48;3.00;;;;;;;5.25;100.00;101978.00;5565421;25;20041;-76
2024/04/20 03:00:07;;;;;;;19.92;2.33;;;;;;;5.28;100.00;101984.94;5565606;25;19997;-76
2024/04/20 03:02:32;;;;;;;22.05;3.38;;;;;;;5.29;100.00;101991.94;5565460;25;20444;-76
2024/04/20 03:04:58;;;;;;;15.70;2.25;;;;;;;5.28;100.00;101990.22;5532469;25;20068;-76
2024/04/20 03:07:27;;;;;;;15.10;2.78;;;;;;;5.24;100.00;101983.38;5532844;25;19993;-76
2024/04/20 03:09:53;;;;;;;20.20;3.25;;;;;;;5.22;100.00;101990.53;5533352;25;20009;-76
2024/04/20 03:12:19;;;;;;;20.50;2.83;;;;;;;5.18;100.00;101996.88;5565881;25;20332;-76
2024/04/20 03:14:45;;;;;;;11.57;2.38;;;;;;;5.17;100.00;102000.47;5565142;25;20373;-77
2024/04/20 03:17:10;;;;;;;12.95;2.38;;;;;;;5.15;100.00;102000.53;5563616;25;19993;-76
2024/04/20 03:19:36;;;;;;;21.52;2.80;;;;;;;5.15;100.00;101997.03;5565306;25;19993;-77
2024/04/20 03:22:01;;;;;;;12.85;2.38;;;;;;;5.12;100.00;101998.06;5565574;25;19993;-77
2024/04/20 03:24:26;;;;;;;13.00;2.75;;;;;;;5.09;100.00;102003.44;5532414;25;20029;-77
2024/04/20 03:26:51;;;;;;;8.07;1.90;;;;;;;5.07;100.00;102000.03;5532442;25;20417;-76
2024/04/20 03:29:18;;;;;;;10.10;2.17;;;;;;;5.05;100.00;102000.13;5565512;25;20139;-76
2024/04/20 03:31:43;;;;;;;13.50;2.47;;;;;;;5.07;100.00;102002.69;5532234;25;20394;-76
2024/04/20 03:34:08;;;;;;;9.60;1.65;;;;;;;5.10;100.00;102008.66;5564844;25;20042;-76
2024/04/20 03:36:33;;;;;;;19.50;2.53;;;;;;;5.11;100.00;102006.88;5564713;25;20340;-76
2024/04/20 03:39:10;;;;;;;11.57;1.98;;;;;;;5.11;100.00;102018.28;5531928;25;19993;-76
2024/04/20 03:41:35;;;;;;;9.80;1.75;;;;;;;5.12;100.00;102017.38;5565842;25;20053;-76
2024/04/20 03:44:00;;;;;;;21.20;2.40;;;;;;;5.15;100.00;102020.78;5532398;25;20005;-75
2024/04/20 03:46:26;;;;;;;6.45;2.05;;;;;;;5.17;100.00;102017.13;5565246;25;20428;-76
2024/04/20 03:48:51;;;;;;;11.90;1.95;;;;;;;5.21;100.00;102029.25;5565081;25;20064;-75
2024/04/20 03:51:16;;;;;;;11.68;2.47;;;;;;;5.24;100.00;102034.38;5565044;25;19992;-76
2024/04/20 03:53:42;;;;;;;13.20;2.10;;;;;;;5.19;100.00;102030.25;5564568;25;20313;-76
2024/04/20 03:56:07;;;;;;;14.23;2.03;;;;;;;5.11;100.00;102043.81;5564939;25;20328;-75
2024/04/20 03:58:33;;;;;;;14.85;2.03;;;;;;;4.99;100.00;102044.41;5531903;25;20000;-79
2024/04/20 04:00:58;;;;;;;11.90;1.85;;;;;;;4.87;100.00;102044.06;5565158;25;20046;-76
2024/04/20 04:03:26;;;;;;;13.02;2.30;;;;;;;4.76;100.00;102043.69;5564953;25;19993;-76
2024/04/20 04:05:53;;;;;;;9.57;1.75;;;;;;;4.63;100.00;102050.47;5564393;25;19993;-75
2024/04/20 04:08:19;;;;;;;8.25;1.65;;;;;;;4.49;100.00;102045.84;5564377;25;19993;-77
2024/04/20 04:10:45;;;;;;;12.98;1.90;;;;;;;4.41;100.00;102054.09;5531791;25;19992;-76
2024/04/20 04:13:12;;;;;;;8.90;1.55;;;;;;;4.35;100.00;102055.22;5565241;25;20004;-76
2024/04/20 04:15:37;;;;;;;8.23;1.40;;;;;;;4.34;100.00;102053.50;5564691;25;20004;-75
2024/04/20 04:18:03;;;;;;;6.57;1.40;;;;;;;4.36;100.00;102061.34;5531858;25;20028;-76
2024/04/20 04:20:29;;;;;;;10.20;1.67;;;;;;;4.39;100.00;102053.31;5564488;25;20349;-77
2024/04/20 04:22:54;;;;;;;7.57;1.80;;;;;;;4.41;100.00;102056.72;5564073;25;19993;-75
2024/04/20 04:25:19;;;;;;;7.50;1.33;;;;;;;4.46;100.00;102064.44;5531137;25;19992;-76
2024/04/20 04:27:45;;;;;;;7.03;1.50;;;;;;;4.50;100.00;102061.59;5563915;25;20469;-75
2024/04/20 04:30:10;;;;;;;8.70;1.48;;;;;;;4.51;100.00;102063.31;5564971;25;19992;-77
2024/04/20 04:32:36;;;;;;;6.25;1.48;;;;;;;4.54;100.00;102067.59;5563850;25;20020;-76
2024/04/20 04:35:01;;;;;;;14.57;2.20;;;;;;;4.53;100.00;102074.63;5530686;25;20428;-76
2024/04/20 04:37:28;;;;;;;10.02;2.25;;;;;;;4.57;100.00;102089.38;5563614;25;20100;-76
2024/04/20 04:39:57;;;;;;;16.48;1.95;;;;;;;4.58;100.00;102083.19;5530962;25;20007;-76
2024/04/20 04:42:23;;;;;;;24.52;2.35;;;;;;;4.62;100.00;102089.16;5531173;25;19999;-76
2024/04/20 04:44:48;;;;;;;12.13;1.95;;;;;;;4.56;100.00;102085.03;5563530;25;19996;-76
2024/04/20 04:47:14;;;;;;;15.00;2.00;;;;;;;4.46;100.00;102086.34;5563438;25;20011;-76
2024/04/20 04:49:39;;;;;;;23.48;2.47;;;;;;;4.37;100.00;102087.66;5563242;25;20004;-76
2024/04/20 04:52:05;;;;;;;16.05;2.40;;;;;;;4.28;100.00;102089.81;5563559;25;20001;-76
2024/04/20 04:54:30;;;;;;;16.52;2.13;;;;;;;4.22;100.00;102110.25;5530921;25;20004;-76
2024/04/20 04:56:56;;;;;;;16.23;2.58;;;;;;;4.21;100.00;102113.81;5563432;25;20343;-76
2024/04/20 04:59:22;;;;;;;16.98;2.55;;;;;;;4.20;100.00;102117.38;5563361;25;20003;-77
2024/04/20 05:01:52;;;;;;;16.70;2.22;;;;;;;4.22;100.00;102119.94;5563094;25;19993;-77
2024/04/20 05:04:18;;;;;;;15.20;1.95;;;;;;;4.20;100.00;102117.38;5563514;25;20478;-76
2024/04/20 05:06:45;;;;;;;10.07;1.85;;;;;;;4.17;100.00;102120.13;5563055;25;19993;-81
2024/04/20 05:09:10;;;;;;;9.65;2.13;;;;;;;4.13;100.00;102121.19;5563034;25;19993;-77
2024/04/20 05:11:36;;;;;;;8.52;1.88;;;;;;;4.13;100.00;102130.88;5530184;25;20032;-76
2024/04/20 05:14:01;;;;;;;7.90;1.50;;;;;;;4.12;100.00;102131.78;5563478;25;19997;-76
2024/04/20 05:16:26;;;;;;;14.25;1.95;;;;;;;4.14;100.00;102138.69;5563050;25;19993;-75
2024/04/20 05:18:53;;;;;;;21.98;5.05;;;;;;;4.19;100.00;102149.03;5563048;25;20005;-76
2024/04/20 05:21:18;;;;;;;8.93;1.55;;;;;;;4.25;100.00;102151.41;5563333;25;19996;-76
2024/04/20 05:23:44;;;;;;;11.45;2.22;;;;;;;4.23;100.00;102162.00;5562959;25;20081;-77
2024/04/20 05:26:09;;;;;;;15.65;1.98;;;;;;;4.21;100.00;102157.72;5529556;25;19992;-76
2024/04/20 05:28:35;;;;;;;11.70;1.83;;;;;;;4.13;100.00;102151.94;5562720;25;20332;-75
2024/04/20 05:31:00;;;;;;;12.00;2.42;;;;;;;4.02;100.00;102155.03;5562833;25;20309;-77
2024/04/20 05:33:26;;;;;;;10.43;1.38;;;;;;;3.96;100.00;102156.16;5563267;25;19992;-77
2024/04/20 05:35:51;;;;;;;15.25;2.47;;;;;;;4.01;100.00;102163.84;5562259;25;19993;-77
2024/04/20 05:38:16;;;;;;;6.85;1.63;;;;;;;4.08;100.00;102167.94;5562507;25;20433;-77
2024/04/20 05:40:42;;;;;;;12.05;1.92;;;;;;;4.15;100.00;102172.03;5565968;25;19993;-76
2024/04/20 05:43:07;;;;;;;13.07;2.58;;;;;;;4.30;100.00;102174.91;5566316;25;20000;-76
2024/04/20 05:45:36;;;;;;;18.17;2.60;;;;;;;4.35;100.00;102183.50;5566341;25;20088;-76
2024/04/20 05:48:01;;;;;;;11.57;2.45;;;;;;;4.35;100.00;102180.88;5566013;25;19993;-77
2024/04/20 05:50:27;;;;;;;17.08;2.53;;;;;;;4.40;100.00;102178.88;5566242;25;20022;-77
2024/04/20 05:52:52;;;;;;;17.55;2.25;;;;;;;4.52;100.00;102186.28;5532947;25;20062;-77
2024/04/20 05:55:18;;;;;;;17.13;2.97;;;;;;;4.69;100.00;102187.31;5567469;25;19993;-77
2024/04/20 05:57:43;;;;;;;14.88;2.35;;;;;;;4.86;100.00;102190.03;5568889;25;19989;-76
2024/04/20 06:00:09;;;;;;;16.45;2.95;;;;;;;5.02;100.00;102192.00;5565901;25;20060;-77
2024/04/20 06:02:34;;;;;;;22.48;3.42;;;;;;;5.10;100.00;102192.50;5565944;25;20004;-76
2024/04/20 06:05:02;;;;;;;16.42;2.70;;;;;;;5.13;100.00;102192.34;5532841;25;20012;-77
2024/04/20 06:07:29;;;;;;;14.13;2.50;;;;;;;5.11;100.00;102196.84;5565731;25;19997;-78
2024/04/20 06:09:54;;;;;;;21.65;3.95;;;;;;;5.02;100.00;102199.91;5532881;25;19997;-78
2024/04/20 06:12:20;;;;;;;20.90;3.22;;;;;;;4.95;100.00;102207.22;5532392;25;20033;-77
2024/04/20 06:14:46;;;;;;;24.02;4.93;;;;;;;4.88;100.00;102211.06;5533012;25;19992;-77
2024/04/20 06:17:12;;;;;;;18.73;2.92;;;;;;;4.83;100.00;102216.53;5565222;25;20512;-77
2024/04/20 06:19:38;;;;;;;21.92;3.42;;;;;;;4.81;100.00;102210.50;5565371;25;19989;-77
2024/04/20 06:22:03;;;;;;;20.45;3.08;;;;;;;4.83;100.00;102210.44;5565617;25;20292;-76
2024/04/20 06:24:28;;;;;;;16.55;3.00;;;;;;;4.87;100.00;102223.41;5532663;25;20327;-77
2024/04/20 06:26:54;;;;;;;15.70;2.85;;;;;;;4.92;100.00;102221.41;5566172;25;19992;-77
2024/04/20 06:29:23;;;;;;;22.23;2.75;;;;;;;4.94;100.00;102227.50;5565223;25;19993;-76
2024/04/20 06:31:49;;;;;;;22.00;2.38;;;;;;;4.97;100.00;102236.19;5533692;25;19989;-76
2024/04/20 06:34:14;;;;;;;18.90;2.47;;;;;;;5.04;100.00;102241.09;5495382;26;19994;-76
2024/04/20 06:36:39;;;;;;;16.20;3.28;;;;;;;5.17;100.00;102241.41;5526538;26;20004;-76
2024/04/20 06:39:05;;;;;;;14.43;2.05;;;;;;;5.26;100.00;102240.16;5526388;26;20008;-76
2024/04/20 06:41:31;;;;;;;14.27;2.20;;;;;;;5.30;100.00;102242.56;5528197;25;20008;-76
2024/04/20 06:43:58;;;;;;;14.73;2.35;;;;;;;5.38;100.00;102250.13;5528372;25;20432;-76
2024/04/20 06:46:24;;;;;;;18.92;2.42;;;;;;;5.46;100.00;102257.69;5527680;25;20004;-76
2024/04/20 06:48:49;;;;;;;15.13;2.53;;;;;;;5.50;100.00;102267.19;5527849;25;20065;-77
2024/04/20 06:51:15;;;;;;;17.60;2.50;;;;;;;5.57;100.00;102254.53;5528648;26;20005;-77
2024/04/20 06:53:40;;;;;;;17.30;1.90;;;;;;;5.65;100.00;102261.19;5528630;25;20123;-77
2024/04/20 06:56:09;;;;;;;15.23;2.72;;;;;;;5.76;100.00;102258.06;5526091;26;20128;-75
2024/04/20 06:58:35;;;;;;;10.27;2.00;;;;;;;6.01;100.00;102256.91;5526804;26;20497;-75
2024/04/20 07:01:01;;;;;;;8.43;1.88;;;;;;;6.46;100.00;102273.19;5527205;25;20005;-78
2024/04/20 07:03:27;;;;;;;14.30;2.33;;;;;;;6.84;100.00;102265.94;5527548;25;20003;-76
2024/04/20 07:05:55;;;;;;;12.23;1.83;;;;;;;7.15;100.00;102267.00;5527412;25;20005;-77
2024/04/20 07:08:22;;;;;;;13.85;1.88;;;;;;;7.51;100.00;102281.81;5527452;25;20005;-75
2024/04/20 07:10:54;;;;;;;10.40;2.42;;;;;;;7.97;100.00;102273.09;5527242;25;20008;-77
2024/04/20 07:13:19;;;;;;;14.85;2.30;;;;;;;8.29;100.00;102279.19;5525463;26;20005;-77
2024/04/20 07:15:51;;;;;;;16.27;2.38;;;;;;;8.50;100.00;102270.97;5527373;26;20069;-76
2024/04/20 07:18:17;;;;;;;19.65;2.20;;;;;;;8.76;100.00;102279.16;5527069;25;20004;-75
2024/04/20 07:20:42;;;;;;;14.27;2.65;;;;;;;8.81;100.00;102277.13;5525216;26;20301;-76
2024/04/20 07:23:08;;;;;;;12.07;2.17;;;;;;;8.98;100.00;102284.88;5526818;25;20031;-75
2024/04/20 07:25:33;;;;;;;12.05;2.17;;;;;;;9.02;100.00;102296.19;5525218;26;19993;-79
2024/04/20 07:27:59;;;;;;;17.27;2.70;;;;;;;8.98;100.00;102295.50;5527179;25;20359;-75
2024/04/20 07:30:24;;;;;;;9.75;2.05;;;;;;;8.95;100.00;102302.81;5527179;25;19993;-77
2024/04/20 07:32:49;;;;;;;15.63;2.22;;;;;;;9.03;100.00;102297.03;5524974;26;20390;-77
2024/04/20 07:35:16;;;;;;;17.42;2.40;;;;;;;9.14;100.00;102305.22;5557107;25;20487;-76
2024/04/20 07:37:41;;;;;;;10.13;2.10;;;;;;;9.41;100.00;102304.47;5564326;25;20163;-76
2024/04/20 07:40:07;;;;;;;11.32;2.53;;;;;;;9.57;100.00;102312.31;5564424;25;20004;-75
2024/04/20 07:42:33;;;;;;;12.23;2.55;;;;;;;9.93;100.00;102301.16;5564677;25;20100;-78
2024/04/20 07:44:59;;;;;;;13.10;2.03;;;;;;;10.16;100.00;102310.28;5564077;25;20007;-76
2024/04/20 07:47:24;;;;;;;12.68;2.30;;;;;;;10.07;100.00;102319.69;5563961;25;19993;-78
2024/04/20 07:49:50;;;;;;;16.70;2.55;;;;;;;9.60;100.00;102328.06;5531448;25;19992;-75
2024/04/20 07:52:15;;;;;;;11.25;1.92;;;;;;;9.17;100.00;102327.13;5564221;25;20111;-76
2024/04/20 07:54:40;;;;;;;15.45;2.75;;;;;;;8.95;100.00;102326.72;5563991;25;19992;-76
2024/04/20 07:57:06;;;;;;;15.13;2.28;;;;;;;8.68;100.00;102331.88;5564124;25;19997;-75
2024/04/20 07:59:33;;;;;;;13.68;2.08;;;;;;;8.45;100.00;102323.44;5563911;25;19997;-76
2024/04/20 08:01:59;;;;;;;8.48;2.00;;;;;;;8.50;100.00;102331.97;5563282;25;20005;-75
2024/04/20 08:04:24;;;;;;;15.30;2.80;;;;;;;8.41;100.00;102345.75;5531335;25;20011;-76
2024/04/20 08:06:50;;;;;;;10.98;2.13;;;;;;;8.36;100.00;102353.97;5564009;25;19996;-75
2024/04/20 08:09:15;;;;;;;14.70;2.97;;;;;;;8.44;100.00;102348.25;5531035;25;19996;-75
2024/04/20 08:11:40;;;;;;;21.02;2.22;;;;;;;8.29;100.00;102357.91;5530728;25;20008;-76
2024/04/20 08:14:06;;;;;;;15.63;2.40;;;;;;;8.25;100.00;102361.66;5563875;25;19993;-75
2024/04/20 08:16:31;;;;;;;15.88;2.15;;;;;;;7.98;100.00;102364.91;5499991;25;20319;-76
2024/04/20 08:18:56;;;;;;;5.90;1.25;;;;;;;7.90;100.00;102367.16;5564012;25;20447;-76
2024/04/20 08:21:21;;;;;;;13.90;1.98;;;;;;;7.88;100.00;102371.66;5563826;25;19999;-76
2024/04/20 08:23:47;;;;;;;9.90;2.38;;;;;;;7.96;100.00;102372.13;5563523;25;20451;-75
2024/04/20 08:26:12;;;;;;;12.27;2.00;;;;;;;8.02;100.00;102374.44;5563725;25;19996;-76
2024/04/20 08:28:38;;;;;;;13.23;2.15;;;;;;;7.96;100.00;102372.13;5563396;25;19992;-76
2024/04/20 08:31:03;;;;;;;6.07;1.75;;;;;;;8.13;100.00;102376.47;5530908;25;19996;-75
2024/04/20 08:33:29;;;;;;;9.27;2.25;;;;;;;8.24;100.00;102376.75;5563408;25;20045;-77
2024/04/20 08:35:54;;;;;;;12.82;2.05;;;;;;;8.26;100.00;102385.44;5529428;25;20008;-78
2024/04/20 08:38:20;;;;;;;17.45;2.45;;;;;;;8.44;100.00;102388.03;5529714;25;20410;-76
2024/04/20 08:40:47;;;;;;;11.57;2.47;;;;;;;8.61;100.00;102381.75;5531474;25;20011;-76
2024/04/20 08:43:14;;;;;;;17.08;2.97;;;;;;;8.64;100.00;102389.53;5563882;25;20004;-76
2024/04/20 08:45:43;;;;;;;13.93;2.35;;;;;;;8.78;100.00;102386.94;5563675;25;20321;-76
2024/04/20 08:48:10;;;;;;;12.93;2.45;;;;;;;8.86;100.00;102394.47;5530500;25;20381;-78
2024/04/20 08:50:37;;;;;;;13.68;3.13;;;;;;;8.93;100.00;102394.97;5563645;25;20065;-74
2024/04/20 08:53:04;;;;;;;15.90;2.30;;;;;;;9.29;100.00;102391.91;5563814;25;20060;-78
2024/04/20 08:55:32;;;;;;;13.80;3.13;;;;;;;9.66;100.00;102404.75;5563339;25;19995;-78
2024/04/20 08:57:58;;;;;;;18.73;2.45;;;;;;;10.00;100.00;102408.81;5563581;25;20400;-77
2024/04/20 09:00:28;;;;;;;14.32;2.78;;;;;;;11.08;100.00;102400.97;5563527;25;20000;-76
2024/04/20 09:02:53;;;;;;;6.95;1.85;;;;;;;12.67;100.00;102408.38;5563921;25;20072;-77
2024/04/20 09:05:19;;;;;;;11.38;1.70;;;;;;;13.64;100.00;102403.66;5563022;25;20004;-75
2024/04/20 09:07:45;;;;;;;11.68;1.92;;;;;;;14.41;100.00;102412.72;5563052;25;20005;-75
2024/04/20 09:10:11;;;;;;;8.40;1.33;;;;;;;13.69;100.00;102420.22;5530975;25;19997;-78
2024/04/20 09:12:36;;;;;;;10.75;2.03;;;;;;;13.75;100.00;102413.53;5530506;25;20003;-78
2024/04/20 09:15:06;;;;;;;8.48;1.77;;;;;;;13.28;100.00;102418.91;5565238;25;19997;-76
2024/04/20 09:17:32;;;;;;;6.90;1.60;;;;;;;12.92;100.00;102420.75;5566784;25;19999;-76
2024/04/20 09:19:57;;;;;;;4.78;1.88;;;;;;;11.65;100.00;102426.34;5566654;25;19997;-76
2024/04/20 09:22:23;;;;;;;8.80;1.95;;;;;;;10.59;100.00;102427.22;5566739;25;20004;-75
2024/04/20 09:25:00;;;;;;;9.13;1.95;;;;;;;10.94;100.00;102431.16;5566960;25;20325;-79
2024/04/20 09:27:26;;;;;;;9.88;1.95;;;;;;;11.69;100.00;102434.97;5566921;25;19997;-75
2024/04/20 09:29:51;;;;;;;10.43;1.80;;;;;;;13.27;100.00;102433.25;5565546;25;20450;-78
2024/04/20 09:32:17;;;;;;;6.18;1.60;;;;;;;13.56;100.00;102428.34;5532876;25;19997;-77
2024/04/20 09:34:43;;;;;;;7.80;1.50;;;;;;;13.65;100.00;102426.78;5565994;25;20001;-82
2024/04/20 09:37:08;;;;;;;6.35;1.40;;;;;;;13.44;100.00;102434.66;5533140;25;20017;-76
2024/04/20 09:39:34;;;;;;;8.90;1.38;;;;;;;12.82;100.00;102436.63;5565766;25;20436;-77
2024/04/20 09:42:01;;;;;;;11.90;2.20;;;;;;;11.67;100.00;102451.09;5532826;25;19996;-76
2024/04/20 09:44:30;;;;;;;10.70;1.63;;;;;;;11.00;100.00;102448.56;5565900;25;20388;-80
2024/04/20 09:46:57;;;;;;;8.18;1.70;;;;;;;10.91;100.00;102458.00;5566045;25;20451;-76
2024/04/20 09:49:28;;;;;;;8.45;2.10;;;;;;;10.67;100.00;102457.81;5566619;25;19999;-77
2024/04/20 09:52:13;;;;;;;6.50;1.42;;;;;;;10.28;100.00;102462.91;5533390;25;20004;-75
2024/04/20 09:54:49;;;;;;;8.70;1.83;;;;;;;10.04;100.00;102474.13;5566087;25;19993;-76
2024/04/20 09:57:17;;;;;;;9.82;1.63;;;;;;;9.88;100.00;102463.63;5533756;25;19996;-76
2024/04/20 09:59:43;;;;;;;5.65;1.38;;;;;;;9.63;100.00;102482.00;5532793;25;20123;-76
2024/04/20 10:02:09;;;;;;;10.00;1.35;;;;;;;9.69;100.00;102490.47;5565901;25;19993;-76
2024/04/20 10:04:35;;;;;;;8.90;1.38;;;;;;;9.34;100.00;102474.84;5502476;25;20068;-76
2024/04/20 10:07:01;;;;;;;6.13;1.10;;;;;;;8.94;100.00;102473.66;5565441;25;19993;-76
2024/04/20 10:09:27;;;;;;;6.60;1.98;;;;;;;8.70;100.00;102466.13;5566304;25;19992;-77
2024/04/20 10:11:55;;;;;;;5.75;1.30;;;;;;;8.66;100.00;102467.28;5565620;25;20427;-76
2024/04/20 10:14:21;;;;;;;5.22;1.40;;;;;;;8.95;100.00;102470.91;5565690;25;19997;-75
2024/04/20 10:16:46;;;;;;;7.97;1.27;;;;;;;9.20;100.00;102469.50;5566016;25;20069;-76
2024/04/20 10:19:11;;;;;;;11.18;1.60;;;;;;;9.55;100.00;102466.53;5501719;25;19997;-76
2024/04/20 10:21:39;;;;;;;7.63;1.30;;;;;;;9.92;100.00;102458.97;5565513;25;19989;-76
2024/04/20 10:24:04;;;;;;;10.02;1.77;;;;;;;10.69;100.00;102459.44;5565689;25;20027;-76
2024/04/20 10:26:31;;;;;;;8.60;1.40;;;;;;;11.53;100.00;102459.22;5531742;25;20489;-76
2024/04/20 10:29:09;;;;;;;8.63;1.33;;;;;;;12.05;100.00;102462.75;5565062;25;19992;-77
2024/04/20 10:31:36;;;;;;;10.05;1.88;;;;;;;12.07;100.00;102458.13;5532029;25;20003;-77
2024/04/20 10:34:01;;;;;;;9.85;2.00;;;;;;;13.23;100.00;102455.84;5565377;25;20003;-79
2024/04/20 10:36:27;;;;;;;14.90;2.15;;;;;;;13.63;100.00;102459.94;5565771;25;19992;-74
2024/04/20 10:39:06;;;;;;;9.20;1.77;;;;;;;14.76;100.00;102450.03;5565901;25;20408;-75
2024/04/20 10:41:38;;;;;;;18.27;2.17;;;;;;;14.83;100.00;102444.16;5565491;25;20068;-75
2024/04/20 10:44:12;;;;;;;9.93;1.83;;;;;;;14.93;100.00;102451.28;5565861;25;20005;-77
2024/04/20 10:46:38;;;;;;;8.63;2.10;;;;;;;14.59;100.00;102446.00;5565406;25;19997;-80
2024/04/20 10:49:10;;;;;;;9.32;2.67;;;;;;;14.66;100.00;102453.56;5565419;25;20007;-76
2024/04/20 10:51:35;;;;;;;14.32;2.13;;;;;;;14.32;100.00;102459.84;5565637;25;19993;-78
2024/04/20 10:54:02;;;;;;;15.50;2.92;;;;;;;12.58;100.00;102474.00;5565394;25;19993;-76
2024/04/20 10:56:30;;;;;;;10.80;2.00;;;;;;;10.82;100.00;102474.59;5565191;25;19997;-77
2024/04/20 10:58:56;;;;;;;8.35;2.20;;;;;;;9.59;100.00;102468.06;5564793;25;20301;-76
2024/04/20 11:01:21;;;;;;;13.35;2.63;;;;;;;8.93;100.00;102459.53;5565243;25;20062;-77
2024/04/20 11:03:47;;;;;;;11.98;2.25;;;;;;;9.09;100.00;102453.31;5565250;25;20004;-77
2024/04/20 11:06:18;;;;;;;12.70;2.30;;;;;;;10.27;100.00;102447.91;5566037;25;20004;-76
2024/04/20 11:08:43;;;;;;;;;;;;;;;11.47;100.00;102444.47;5566337;25;19997;-77
2024/04/20 11:11:09;;;;;;;12.07;2.33;;;;;;;12.77;100.00;102449.47;5565332;25;19929;-77